Time;durP1;ratioP1;P1;durP2;ratioP2;P2;SDS_P1;SDS_P2;PMS_P1;PMS_P2;Temp;Humidity;BMP_temperature;BMP_pressure;BME280_temperature;BME280_humidity;BME280_pressure;Samples;Min_cycle;Max_cycle;Signal;HPM_P1;HPM_P2
2021/08/19 00:01:05;;;;;;;58.07;2.40;;;17.40;1.00;;;;;;5071728;28;20489;-69
2021/08/19 00:03:31;;;;;;;57.97;2.37;;;17.40;1.00;;;;;;5071728;28;20459;-69
2021/08/19 00:06:00;;;;;;;58.03;2.60;;;17.40;1.00;;;;;;5071746;28;20461;-70
2021/08/19 00:08:26;;;;;;;58.10;2.47;;;17.40;1.00;;;;;;5071543;28;21100;-70
2021/08/19 00:10:53;;;;;;;58.10;2.50;;;17.40;1.00;;;;;;5071232;28;20546;-70
2021/08/19 00:13:20;;;;;;;58.20;2.50;;;17.40;1.00;;;;;;5071637;28;20486;-70
2021/08/19 00:15:47;;;;;;;58.10;2.60;;;17.40;1.00;;;;;;5071504;28;20454;-70
2021/08/19 00:18:14;;;;;;;58.20;2.40;;;17.40;1.00;;;;;;5071609;28;20818;-70
2021/08/19 00:20:41;;;;;;;58.10;2.47;;;17.40;1.00;;;;;;5071182;28;21010;-70
2021/08/19 00:23:09;;;;;;;57.97;2.33;;;17.40;1.00;;;;;;5071467;28;20466;-69
2021/08/19 00:25:36;;;;;;;57.83;2.40;;;17.40;1.00;;;;;;5071740;28;20536;-69
2021/08/19 00:28:03;;;;;;;58.17;2.90;;;17.40;1.00;;;;;;5071490;28;20545;-69
2021/08/19 00:30:30;;;;;;;58.03;2.50;;;17.40;1.00;;;;;;5071350;28;20445;-69
2021/08/19 00:32:57;;;;;;;57.57;2.67;;;17.40;1.00;;;;;;5071458;28;20482;-69
2021/08/19 00:35:24;;;;;;;58.13;2.73;;;17.40;1.00;;;;;;5071552;28;20548;-70
2021/08/19 00:37:50;;;;;;;58.27;2.70;;;17.30;1.00;;;;;;5071311;28;20817;-69
2021/08/19 00:40:19;;;;;;;58.20;2.47;;;17.30;1.00;;;;;;5071244;28;20454;-70
2021/08/19 00:42:45;;;;;;;57.97;2.53;;;17.30;1.00;;;;;;5071334;28;20552;-70
2021/08/19 00:45:12;;;;;;;58.20;3.10;;;17.30;1.00;;;;;;5071333;28;20446;-70
2021/08/19 00:47:40;;;;;;;58.13;2.47;;;17.30;1.00;;;;;;5071302;28;20897;-70
2021/08/19 00:50:09;;;;;;;58.17;2.43;;;17.30;1.00;;;;;;5072803;28;20850;-70
2021/08/19 00:52:37;;;;;;;58.20;2.30;;;17.30;1.00;;;;;;5075132;28;20568;-70
2021/08/19 00:55:05;;;;;;;57.97;2.50;;;17.30;1.00;;;;;;5074991;28;20533;-70
2021/08/19 00:57:33;;;;;;;58.00;2.50;;;17.30;1.00;;;;;;5074738;28;21064;-70
2021/08/19 01:00:00;;;;;;;58.07;2.60;;;17.30;1.00;;;;;;5074622;28;20817;-70
2021/08/19 01:02:27;;;;;;;58.20;2.50;;;17.30;1.00;;;;;;5074586;28;21050;-70
2021/08/19 01:04:53;;;;;;;58.00;2.63;;;17.30;1.00;;;;;;5074619;28;20493;-70
2021/08/19 01:07:20;;;;;;;57.70;2.50;;;17.30;1.00;;;;;;5074759;28;20551;-70
2021/08/19 01:09:48;;;;;;;58.07;2.50;;;17.30;1.00;;;;;;5074182;28;21013;-69
2021/08/19 01:12:15;;;;;;;57.83;2.30;;;17.20;1.00;;;;;;5074639;28;20759;-69
2021/08/19 01:14:45;;;;;;;58.23;2.40;;;17.30;1.00;;;;;;5074475;28;20485;-69
2021/08/19 01:17:14;;;;;;;58.03;2.60;;;17.20;1.00;;;;;;5074311;28;20541;-69
2021/08/19 01:19:42;;;;;;;58.03;2.40;;;17.20;1.00;;;;;;5074316;28;20450;-69
2021/08/19 01:22:10;;;;;;;57.93;2.57;;;17.20;1.00;;;;;;5074378;28;20560;-69
2021/08/19 01:24:37;;;;;;;58.13;2.50;;;17.20;1.00;;;;;;5074243;28;20456;-69
2021/08/19 01:27:04;;;;;;;57.97;2.60;;;17.20;1.00;;;;;;5074086;28;20461;-69
2021/08/19 01:29:33;;;;;;;58.60;3.70;;;17.20;1.00;;;;;;5073896;28;20482;-69
2021/08/19 01:32:04;;;;;;;58.07;2.40;;;17.20;1.00;;;;;;5073954;28;20462;-69
2021/08/19 01:34:31;;;;;;;57.70;2.40;;;17.20;1.00;;;;;;5074927;28;20450;-69
2021/08/19 01:36:59;;;;;;;57.83;2.47;;;17.20;1.00;;;;;;5074179;28;20450;-69
2021/08/19 01:39:26;;;;;;;57.47;2.40;;;17.20;1.00;;;;;;5073847;28;20954;-69
2021/08/19 01:41:53;;;;;;;57.57;2.40;;;17.20;1.00;;;;;;5073862;28;20556;-69
2021/08/19 01:44:20;;;;;;;58.17;2.60;;;17.20;1.00;;;;;;5073889;28;20532;-69
2021/08/19 01:46:53;;;;;;;57.77;2.50;;;17.20;1.00;;;;;;5072391;28;20454;-69
2021/08/19 01:49:20;;;;;;;57.77;2.50;;;17.20;1.00;;;;;;5073535;28;20489;-69
2021/08/19 01:51:46;;;;;;;57.90;2.53;;;17.20;1.00;;;;;;5073687;28;20557;-69
2021/08/19 01:54:13;;;;;;;58.27;2.50;;;17.10;1.00;;;;;;5073692;28;20475;-69
2021/08/19 01:56:41;;;;;;;58.13;2.90;;;17.10;1.00;;;;;;5073808;28;20453;-69
2021/08/19 01:59:07;;;;;;;57.80;2.37;;;17.10;1.00;;;;;;5073543;28;20527;-69
2021/08/19 02:01:34;;;;;;;57.97;2.50;;;17.10;1.00;;;;;;5072637;28;20505;-69
2021/08/19 02:04:04;;;;;;;58.13;2.30;;;17.10;1.00;;;;;;5073508;28;20464;-69
2021/08/19 02:06:31;;;;;;;58.13;2.30;;;17.10;1.00;;;;;;5073329;28;20454;-69
2021/08/19 02:08:58;;;;;;;57.97;2.73;;;17.10;1.00;;;;;;5073525;28;20568;-69
2021/08/19 02:11:25;;;;;;;58.07;2.40;;;17.10;1.00;;;;;;5073238;28;20505;-69
2021/08/19 02:13:52;;;;;;;58.03;2.57;;;17.10;1.00;;;;;;5073407;28;20449;-69
2021/08/19 02:16:19;;;;;;;57.87;2.30;;;17.10;1.00;;;;;;5073269;28;20962;-69
2021/08/19 02:18:46;;;;;;;57.93;2.60;;;17.10;1.00;;;;;;5073268;28;20445;-69
2021/08/19 02:21:14;;;;;;;58.00;2.50;;;17.10;1.00;;;;;;5072807;28;20497;-69
2021/08/19 02:23:41;;;;;;;57.77;2.53;;;17.10;1.00;;;;;;5073382;28;20821;-69
2021/08/19 02:26:08;;;;;;;57.77;2.57;;;17.10;1.00;;;;;;5073101;28;20541;-69
2021/08/19 02:28:35;;;;;;;58.50;3.13;;;17.10;1.00;;;;;;5073025;28;20531;-69
2021/08/19 02:31:02;;;;;;;57.87;2.47;;;17.10;1.00;;;;;;5072881;28;20454;-69
2021/08/19 02:33:29;;;;;;;58.17;2.50;;;17.00;1.00;;;;;;5072863;28;20446;-69
2021/08/19 02:35:55;;;;;;;58.03;2.60;;;17.10;1.00;;;;;;5072704;28;20449;-69
2021/08/19 02:38:24;;;;;;;57.83;2.37;;;17.10;1.00;;;;;;5072996;28;20453;-69
2021/08/19 02:40:51;;;;;;;57.77;2.50;;;17.10;1.00;;;;;;5072377;28;20536;-70
2021/08/19 02:43:18;;;;;;;58.07;2.60;;;17.10;1.00;;;;;;5072870;28;20456;-70
2021/08/19 02:45:44;;;;;;;58.30;2.60;;;17.10;1.00;;;;;;5072709;28;20595;-69
2021/08/19 02:48:11;;;;;;;58.00;2.57;;;17.10;1.00;;;;;;5072760;28;20482;-69
2021/08/19 02:50:38;;;;;;;57.93;2.60;;;17.10;1.00;;;;;;5072886;28;20573;-69
2021/08/19 02:53:05;;;;;;;57.83;2.80;;;17.10;1.00;;;;;;5072687;28;20557;-69
2021/08/19 02:55:34;;;;;;;58.30;2.50;;;17.10;1.00;;;;;;5072539;28;20532;-70
2021/08/19 02:58:00;;;;;;;58.27;3.00;;;17.00;1.00;;;;;;5072638;28;21033;-69
2021/08/19 03:00:28;;;;;;;57.47;2.40;;;17.00;1.00;;;;;;5072444;28;20478;-69
2021/08/19 03:02:54;;;;;;;58.37;2.50;;;17.10;1.00;;;;;;5072251;28;21028;-69
2021/08/19 03:05:21;;;;;;;58.13;2.60;;;17.00;1.00;;;;;;5072851;28;20805;-69
2021/08/19 03:07:48;;;;;;;57.97;2.40;;;17.00;1.00;;;;;;5072526;28;20877;-69
2021/08/19 03:10:15;;;;;;;57.57;2.50;;;17.00;1.00;;;;;;5071955;28;20482;-69
2021/08/19 03:12:43;;;;;;;58.07;2.83;;;17.00;1.00;;;;;;5071894;28;20477;-69
2021/08/19 03:15:11;;;;;;;57.93;2.40;;;17.00;1.00;;;;;;5072099;28;21036;-69
2021/08/19 03:17:38;;;;;;;57.97;2.50;;;17.00;1.00;;;;;;5072321;28;20884;-70
2021/08/19 03:20:07;;;;;;;57.73;2.60;;;17.00;1.00;;;;;;5071911;28;20989;-70
2021/08/19 03:22:34;;;;;;;58.03;2.83;;;17.00;1.00;;;;;;5071969;28;20479;-70
2021/08/19 03:25:01;;;;;;;58.20;2.40;;;17.00;1.00;;;;;;5072112;28;20831;-70
2021/08/19 03:27:31;;;;;;;58.00;2.40;;;17.00;1.00;;;;;;5071981;28;21029;-70
2021/08/19 03:29:59;;;;;;;57.77;2.50;;;17.00;1.00;;;;;;5071619;28;20486;-70
2021/08/19 03:32:26;;;;;;;57.67;2.40;;;17.00;1.00;;;;;;5072046;28;20545;-70
2021/08/19 03:34:53;;;;;;;57.77;2.33;;;17.00;1.00;;;;;;5072010;28;20509;-70
2021/08/19 03:37:20;;;;;;;58.03;2.30;;;17.00;1.00;;;;;;5072164;28;20536;-70
2021/08/19 03:39:47;;;;;;;57.67;2.50;;;16.90;1.00;;;;;;5071679;28;20804;-70
2021/08/19 03:42:14;;;;;;;57.97;2.60;;;16.90;1.00;;;;;;5071820;28;20466;-70
2021/08/19 03:44:41;;;;;;;57.90;2.30;;;16.90;1.00;;;;;;5072154;28;20444;-70
2021/08/19 03:47:09;;;;;;;58.17;2.80;;;16.90;1.00;;;;;;5071862;28;20454;-70
2021/08/19 03:49:36;;;;;;;58.03;2.43;;;16.90;1.00;;;;;;5071632;28;20486;-70
2021/08/19 03:52:03;;;;;;;58.03;2.60;;;16.90;1.00;;;;;;5071692;28;20552;-70
2021/08/19 03:54:30;;;;;;;57.97;2.47;;;16.90;1.00;;;;;;5071728;28;20452;-70
2021/08/19 03:56:57;;;;;;;57.97;2.33;;;16.90;1.00;;;;;;5071531;28;20450;-70
2021/08/19 03:59:24;;;;;;;58.20;2.50;;;16.90;1.00;;;;;;5071672;28;20552;-70
2021/08/19 04:01:50;;;;;;;57.87;2.40;;;16.90;1.00;;;;;;5072008;28;20546;-70
2021/08/19 04:04:19;;;;;;;58.00;2.40;;;16.90;1.00;;;;;;5071640;28;20498;-70
2021/08/19 04:06:45;;;;;;;58.30;2.60;;;16.90;1.00;;;;;;5071623;28;20541;-70
2021/08/19 04:09:12;;;;;;;57.80;2.47;;;16.90;1.00;;;;;;5071266;28;20476;-70
2021/08/19 04:11:39;;;;;;;58.10;2.40;;;16.80;1.00;;;;;;5071461;28;20505;-70
2021/08/19 04:14:06;;;;;;;58.00;2.50;;;16.80;1.00;;;;;;5071781;28;20860;-70
2021/08/19 04:16:33;;;;;;;57.93;2.40;;;16.80;1.00;;;;;;5071796;28;20477;-70
2021/08/19 04:18:59;;;;;;;58.23;2.60;;;16.80;1.00;;;;;;5071427;28;20990;-70
2021/08/19 04:21:28;;;;;;;58.27;2.70;;;16.70;1.00;;;;;;5071343;28;20472;-70
2021/08/19 04:23:55;;;;;;;58.17;2.40;;;16.70;1.00;;;;;;5071502;28;20869;-70
2021/08/19 04:26:21;;;;;;;57.67;2.40;;;16.70;1.00;;;;;;5075501;28;20813;-70
2021/08/19 04:28:48;;;;;;;58.17;2.60;;;16.70;1.00;;;;;;5075273;28;20968;-70
2021/08/19 04:31:15;;;;;;;57.90;2.63;;;16.70;1.00;;;;;;5075224;28;20491;-70
2021/08/19 04:33:42;;;;;;;58.40;2.50;;;16.70;1.00;;;;;;5075316;28;20545;-70
2021/08/19 04:36:09;;;;;;;58.30;2.60;;;16.60;1.00;;;;;;5075009;28;20949;-70
2021/08/19 04:38:37;;;;;;;57.87;2.60;;;16.60;1.00;;;;;;5075063;28;20883;-70
2021/08/19 04:41:04;;;;;;;58.40;3.07;;;16.60;1.00;;;;;;5075140;28;20449;-70
2021/08/19 04:43:31;;;;;;;58.17;2.70;;;16.60;1.00;;;;;;5075016;28;20975;-70
2021/08/19 04:45:58;;;;;;;57.93;2.40;;;16.60;1.00;;;;;;5075409;28;20541;-70
2021/08/19 04:48:25;;;;;;;57.87;2.50;;;16.60;1.00;;;;;;5074908;28;20454;-70
2021/08/19 04:50:51;;;;;;;58.07;2.27;;;16.60;1.00;;;;;;5074497;28;20485;-70
2021/08/19 04:53:18;;;;;;;58.17;2.60;;;16.70;1.00;;;;;;5074980;28;20535;-70
2021/08/19 04:55:47;;;;;;;58.17;2.30;;;16.70;1.00;;;;;;5074965;28;20489;-70
2021/08/19 04:58:13;;;;;;;58.07;2.43;;;16.70;1.00;;;;;;5074808;28;20452;-70
2021/08/19 05:00:40;;;;;;;57.87;2.40;;;16.70;1.00;;;;;;5074756;28;20480;-70
2021/08/19 05:03:07;;;;;;;58.07;2.50;;;16.70;1.00;;;;;;5074585;28;20844;-70
2021/08/19 05:05:34;;;;;;;57.87;2.33;;;16.80;1.00;;;;;;5074693;28;20453;-69
2021/08/19 05:08:01;;;;;;;57.87;2.57;;;16.80;1.00;;;;;;5074949;28;20449;-69
2021/08/19 05:10:28;;;;;;;58.30;2.80;;;16.80;1.00;;;;;;5074363;28;20489;-69
2021/08/19 05:12:56;;;;;;;58.00;2.50;;;16.80;1.00;;;;;;5074371;28;20993;-69
2021/08/19 05:15:23;;;;;;;58.10;2.53;;;16.80;1.00;;;;;;5074693;28;20478;-69
2021/08/19 05:17:50;;;;;;;58.37;2.50;;;16.90;1.00;;;;;;5074404;28;20453;-69
2021/08/19 05:20:17;;;;;;;57.77;2.60;;;16.90;1.00;;;;;;5073994;28;20445;-69
2021/08/19 05:22:44;;;;;;;58.23;3.07;;;16.90;1.00;;;;;;5074507;28;20834;-70
2021/08/19 05:25:12;;;;;;;58.17;2.50;;;17.00;1.00;;;;;;5074462;28;20453;-70
2021/08/19 05:27:39;;;;;;;58.07;2.67;;;17.00;1.00;;;;;;5074328;28;20529;-70
2021/08/19 05:30:09;;;;;;;57.87;2.43;;;17.00;1.00;;;;;;5073985;28;20486;-70
2021/08/19 05:32:36;;;;;;;58.90;2.70;;;17.10;1.00;;;;;;5074111;28;20685;-70
2021/08/19 05:35:03;;;;;;;58.80;2.93;;;17.10;1.00;;;;;;5074019;28;20453;-70
2021/08/19 05:37:30;;;;;;;57.97;2.40;;;17.10;1.00;;;;;;5074158;28;20454;-70
2021/08/19 05:39:57;;;;;;;58.10;2.67;;;17.20;1.00;;;;;;5073676;28;20448;-70
2021/08/19 05:42:24;;;;;;;58.17;2.50;;;17.20;1.00;;;;;;5074015;28;20562;-70
2021/08/19 05:44:50;;;;;;;57.47;2.40;;;17.20;1.00;;;;;;5073885;28;20507;-70
2021/08/19 05:47:19;;;;;;;57.97;2.40;;;17.30;1.00;;;;;;5073752;28;20445;-70
2021/08/19 05:49:46;;;;;;;57.67;2.50;;;17.30;1.00;;;;;;5073493;28;20537;-70
2021/08/19 05:52:14;;;;;;;57.97;2.50;;;17.40;1.00;;;;;;5073822;28;20844;-70
2021/08/19 05:54:41;;;;;;;57.97;2.30;;;17.40;1.00;;;;;;5073858;28;20537;-70
2021/08/19 05:57:09;;;;;;;57.93;2.50;;;17.40;1.00;;;;;;5073722;28;20547;-70
2021/08/19 05:59:36;;;;;;;58.07;2.50;;;17.40;1.00;;;;;;5073324;28;20969;-70
2021/08/19 06:02:03;;;;;;;57.67;2.33;;;17.40;1.00;;;;;;5073621;28;20553;-70
2021/08/19 06:04:31;;;;;;;58.00;2.40;;;17.50;1.00;;;;;;5073617;28;20493;-70
2021/08/19 06:06:58;;;;;;;58.10;2.60;;;17.40;1.00;;;;;;5073603;28;20484;-70
2021/08/19 06:09:25;;;;;;;58.00;2.50;;;17.40;1.00;;;;;;5073340;28;20812;-70
2021/08/19 06:11:52;;;;;;;58.10;2.30;;;17.50;1.00;;;;;;5073201;28;21015;-70
2021/08/19 06:14:18;;;;;;;57.97;2.40;;;17.50;1.00;;;;;;5073355;28;20538;-70
2021/08/19 06:16:45;;;;;;;58.30;2.47;;;17.50;1.00;;;;;;5073151;28;20456;-70
2021/08/19 06:19:12;;;;;;;58.03;2.40;;;17.60;1.00;;;;;;5073202;28;20546;-70
2021/08/19 06:21:41;;;;;;;57.77;2.47;;;17.60;1.00;;;;;;5073352;28;20468;-70
2021/08/19 06:24:08;;;;;;;57.93;2.53;;;17.70;1.00;;;;;;5073095;28;21042;-70
2021/08/19 06:26:34;;;;;;;58.07;2.40;;;17.80;1.00;;;;;;5073161;28;20884;-70
2021/08/19 06:29:01;;;;;;;57.93;2.50;;;17.80;1.00;;;;;;5072900;28;20606;-70
2021/08/19 06:31:28;;;;;;;58.40;2.40;;;17.90;1.00;;;;;;5072881;28;20514;-70
2021/08/19 06:33:55;;;;;;;57.67;2.10;;;18.00;1.00;;;;;;5073091;28;20526;-70
2021/08/19 06:36:22;;;;;;;59.27;2.40;;;18.10;1.00;;;;;;5072728;28;20547;-70
2021/08/19 06:38:52;;;;;;;58.20;2.67;;;18.20;1.00;;;;;;5072666;28;20451;-70
2021/08/19 06:41:20;;;;;;;57.83;2.20;;;18.30;1.00;;;;;;5072688;28;20493;-71
2021/08/19 06:43:47;;;;;;;57.57;2.50;;;18.40;1.00;;;;;;5072649;28;20545;-70
2021/08/19 06:46:14;;;;;;;57.97;2.30;;;18.50;1.00;;;;;;5072539;28;20967;-70
2021/08/19 06:48:41;;;;;;;57.77;2.50;;;18.60;1.00;;;;;;5072230;28;20541;-70
2021/08/19 06:51:08;;;;;;;57.57;2.37;;;18.70;1.00;;;;;;5072184;28;21024;-70
2021/08/19 06:53:35;;;;;;;58.00;2.50;;;18.90;1.00;;;;;;5072504;28;20534;-70
2021/08/19 06:56:04;;;;;;;58.30;2.50;;;19.00;1.00;;;;;;5072282;28;20497;-70
2021/08/19 06:58:31;;;;;;;58.10;2.30;;;19.10;1.00;;;;;;5072674;28;20550;-70
2021/08/19 07:00:58;;;;;;;57.77;2.53;;;19.20;1.00;;;;;;5072432;28;20443;-70
2021/08/19 07:03:26;;;;;;;57.97;2.40;;;19.30;1.00;;;;;;5072257;28;21042;-70
2021/08/19 07:05:53;;;;;;;58.10;2.30;;;19.40;1.00;;;;;;5072339;28;20919;-70
2021/08/19 07:08:20;;;;;;;57.57;2.30;;;19.40;1.00;;;;;;5072322;28;20538;-70
2021/08/19 07:10:47;;;;;;;58.20;2.80;;;19.50;1.00;;;;;;5071787;28;20570;-70
2021/08/19 07:13:16;;;;;;;57.83;2.27;;;19.50;1.00;;;;;;5072143;28;20591;-70
2021/08/19 07:15:44;;;;;;;57.97;2.60;;;19.60;1.00;;;;;;5072162;28;20534;-70
2021/08/19 07:18:11;;;;;;;57.63;2.20;;;19.70;1.00;;;;;;5072158;28;20489;-70
2021/08/19 07:20:38;;;;;;;58.17;2.53;;;19.90;1.00;;;;;;5071891;28;20450;-70
2021/08/19 07:23:05;;;;;;;58.00;2.47;;;19.90;1.00;;;;;;5072191;28;20702;-70
2021/08/19 07:25:32;;;;;;;57.57;2.80;;;20.00;1.00;;;;;;5072301;28;20543;-70
2021/08/19 07:27:59;;;;;;;57.87;2.40;;;20.10;1.00;;;;;;5072135;28;20527;-70
2021/08/19 07:30:27;;;;;;;58.10;2.57;;;20.10;1.00;;;;;;5071884;28;21086;-70
2021/08/19 07:32:54;;;;;;;57.80;2.30;;;20.10;1.00;;;;;;5071901;28;20524;-70
2021/08/19 07:35:21;;;;;;;58.17;2.50;;;20.10;1.00;;;;;;5071973;28;20448;-70
2021/08/19 07:37:50;;;;;;;57.20;2.30;;;20.00;1.00;;;;;;5071834;28;20490;-70
2021/08/19 07:40:17;;;;;;;57.97;2.20;;;20.00;1.00;;;;;;5071586;28;20448;-70
2021/08/19 07:42:44;;;;;;;57.87;2.30;;;20.00;1.00;;;;;;5071940;28;20551;-71
2021/08/19 07:45:12;;;;;;;57.97;2.47;;;20.00;1.00;;;;;;5072054;28;20449;-71
2021/08/19 07:47:40;;;;;;;57.97;2.40;;;20.00;1.00;;;;;;5071799;28;20532;-71
2021/08/19 07:50:08;;;;;;;58.00;2.10;;;20.10;1.00;;;;;;5071373;28;20485;-71
2021/08/19 07:52:36;;;;;;;57.73;2.30;;;20.20;1.00;;;;;;5071921;28;20896;-71
2021/08/19 07:55:03;;;;;;;58.70;3.50;;;20.30;1.00;;;;;;5071854;28;20443;-71
2021/08/19 07:57:41;;;;;;;58.50;3.43;;;20.40;1.00;;;;;;5071733;28;21024;-71
2021/08/19 08:00:09;;;;;;;57.90;2.60;;;20.40;1.00;;;;;;5073785;28;20759;-71
2021/08/19 08:02:35;;;;;;;58.03;2.53;;;20.50;1.00;;;;;;5075775;28;20507;-71
2021/08/19 08:05:04;;;;;;;57.47;2.20;;;20.60;1.00;;;;;;5075868;28;20492;-71
2021/08/19 08:07:31;;;;;;;57.47;2.30;;;20.70;1.00;;;;;;5075840;28;20445;-71
2021/08/19 08:09:58;;;;;;;57.37;2.30;;;20.80;1.00;;;;;;5075558;28;20959;-71
2021/08/19 08:12:24;;;;;;;57.67;2.47;;;20.80;1.00;;;;;;5075691;28;20913;-71
2021/08/19 08:14:51;;;;;;;57.63;2.30;;;20.80;1.00;;;;;;5076151;28;20859;-71
2021/08/19 08:17:19;;;;;;;57.80;2.27;;;20.80;1.00;;;;;;5075424;28;20453;-71
2021/08/19 08:19:46;;;;;;;58.33;2.50;;;20.80;1.00;;;;;;5075509;28;20907;-71
2021/08/19 08:22:14;;;;;;;57.73;2.20;;;20.80;1.00;;;;;;5075361;28;21063;-71
2021/08/19 08:24:41;;;;;;;57.87;2.60;;;20.90;1.00;;;;;;5075530;28;21027;-70
2021/08/19 08:27:08;;;;;;;58.30;2.70;;;21.10;1.00;;;;;;5075539;28;20891;-70
2021/08/19 08:29:35;;;;;;;57.53;2.30;;;21.20;1.00;;;;;;5075259;28;20899;-70
2021/08/19 08:32:05;;;;;;;58.10;2.50;;;21.20;1.00;;;;;;5075019;28;21024;-70
2021/08/19 08:34:32;;;;;;;57.77;2.33;;;21.20;1.00;;;;;;5075707;28;20454;-70
2021/08/19 08:36:59;;;;;;;57.67;2.30;;;21.10;1.00;;;;;;5075322;28;20456;-70
2021/08/19 08:39:27;;;;;;;57.97;2.93;;;21.10;1.00;;;;;;5075139;28;20445;-71
2021/08/19 08:41:54;;;;;;;57.77;2.50;;;21.10;1.00;;;;;;5075127;28;20564;-71
2021/08/19 08:44:21;;;;;;;57.57;2.50;;;21.20;1.00;;;;;;5074992;28;20537;-71
2021/08/19 08:46:49;;;;;;;57.90;2.90;;;21.20;1.00;;;;;;5075100;28;20456;-71
2021/08/19 08:49:16;;;;;;;58.00;2.37;;;21.20;1.00;;;;;;5074864;28;20484;-71
2021/08/19 08:51:48;;;;;;;57.77;2.33;;;21.30;1.00;;;;;;5074920;28;20488;-71
2021/08/19 08:54:15;;;;;;;57.90;2.50;;;21.50;1.00;;;;;;5075002;28;20841;-71
2021/08/19 08:56:44;;;;;;;57.47;2.50;;;21.70;1.00;;;;;;5074842;28;20443;-71
2021/08/19 08:59:10;;;;;;;57.63;2.40;;;21.90;1.00;;;;;;5074468;28;20536;-71
2021/08/19 09:01:37;;;;;;;57.67;2.40;;;21.90;1.00;;;;;;5074881;28;20476;-70
2021/08/19 09:04:04;;;;;;;58.10;2.50;;;22.10;1.00;;;;;;5074760;28;20951;-70
2021/08/19 09:06:36;;;;;;;57.87;2.30;;;22.20;1.00;;;;;;5074577;28;20454;-70
2021/08/19 09:09:15;;;;;;;57.83;2.30;;;22.30;1.00;;;;;;5074540;28;20948;-70
2021/08/19 09:11:44;;;;;;;58.07;2.50;;;22.60;1.00;;;;;;5074165;28;20486;-70
2021/08/19 09:14:15;;;;;;;58.27;2.93;;;22.80;1.00;;;;;;5074684;28;20546;-70
2021/08/19 09:16:46;;;;;;;58.07;2.50;;;22.90;1.00;;;;;;5074303;28;20462;-70
2021/08/19 09:19:13;;;;;;;57.63;2.30;;;22.90;1.00;;;;;;5074401;28;20546;-70
2021/08/19 09:21:47;;;;;;;58.00;2.70;;;22.90;1.00;;;;;;5074340;28;20907;-70
2021/08/19 09:24:15;;;;;;;58.07;2.60;;;22.90;1.00;;;;;;5074511;28;20447;-70
2021/08/19 09:26:44;;;;;;;57.40;2.20;;;22.90;1.00;;;;;;5074196;28;20959;-70
2021/08/19 09:29:20;;;;;;;58.07;2.30;;;22.80;1.00;;;;;;5074084;28;20443;-70
2021/08/19 09:31:48;;;;;;;57.77;2.20;;;23.10;1.00;;;;;;5074284;28;20487;-70
2021/08/19 09:34:16;;;;;;;57.63;2.30;;;23.30;1.00;;;;;;5074099;28;20462;-70
2021/08/19 09:36:42;;;;;;;57.73;2.30;;;23.40;1.00;;;;;;5073971;28;20545;-70
2021/08/19 09:39:09;;;;;;;57.87;2.70;;;23.20;1.00;;;;;;5074118;28;20449;-70
2021/08/19 09:41:54;;;;;;;57.63;2.20;;;23.20;1.00;;;;;;5074222;28;20550;-70
2021/08/19 09:44:33;;;;;;;58.27;2.53;;;23.20;1.00;;;;;;5074136;28;20443;-70
2021/08/19 09:47:01;;;;;;;57.30;2.13;;;23.20;1.00;;;;;;5073734;28;20454;-70
2021/08/19 09:49:30;;;;;;;57.80;2.10;;;23.30;1.00;;;;;;5073715;28;20546;-70
2021/08/19 09:52:01;;;;;;;57.47;2.33;;;23.40;1.00;;;;;;5073837;28;20479;-70
2021/08/19 09:54:29;;;;;;;57.50;2.10;;;23.70;1.00;;;;;;5073852;28;20870;-70
2021/08/19 09:56:58;;;;;;;57.47;2.10;;;23.80;1.00;;;;;;5073707;28;20803;-70
2021/08/19 09:59:27;;;;;;;57.17;2.13;;;24.00;1.00;;;;;;5073295;28;20702;-70
2021/08/19 10:01:56;;;;;;;57.90;2.20;;;24.20;1.00;;;;;;5073419;28;20966;-70
2021/08/19 10:04:25;;;;;;;57.97;2.63;;;24.30;1.00;;;;;;5073566;28;20554;-70
2021/08/19 10:06:53;;;;;;;57.80;2.10;;;24.50;1.00;;;;;;5073508;28;20829;-70
2021/08/19 10:09:20;;;;;;;57.77;2.20;;;24.60;1.00;;;;;;5073332;28;20479;-70
2021/08/19 10:11:48;;;;;;;58.10;2.50;;;24.60;1.00;;;;;;5073214;28;20527;-70
2021/08/19 10:14:18;;;;;;;57.53;2.10;;;24.60;1.00;;;;;;5073795;28;20439;-70
2021/08/19 10:16:45;;;;;;;57.73;2.10;;;24.70;1.00;;;;;;5073645;28;20541;-70
2021/08/19 10:19:18;;;;;;;57.63;2.10;;;24.90;1.00;;;;;;5073123;28;20448;-71
2021/08/19 10:21:50;;;;;;;57.93;2.20;;;25.30;1.00;;;;;;5072408;28;20547;-71
2021/08/19 10:24:19;;;;;;;57.67;2.00;;;25.40;1.00;;;;;;5073091;28;20449;-71
2021/08/19 10:26:46;;;;;;;57.67;2.10;;;25.80;1.00;;;;;;5073076;28;20443;-71
2021/08/19 10:29:13;;;;;;;57.70;2.10;;;25.90;1.00;;;;;;5072650;28;20449;-71
2021/08/19 10:31:44;;;;;;;57.80;2.30;;;26.20;1.00;;;;;;5073010;28;20836;-71
2021/08/19 10:34:12;;;;;;;57.70;2.20;;;26.60;1.00;;;;;;5073133;28;20965;-71
2021/08/19 10:36:55;;;;;;;57.67;2.00;;;26.80;1.00;;;;;;5072845;28;20461;-71
2021/08/19 10:39:33;;;;;;;58.23;2.57;;;26.70;1.00;;;;;;5072500;28;20935;-71
2021/08/19 10:42:00;;;;;;;57.70;2.07;;;26.40;1.00;;;;;;5072896;28;20552;-71
2021/08/19 10:44:32;;;;;;;57.67;2.20;;;26.00;1.00;;;;;;5072875;28;20536;-71
2021/08/19 10:47:01;;;;;;;57.60;1.80;;;25.60;1.00;;;;;;5072658;28;20867;-71
2021/08/19 10:49:40;;;;;;;57.67;2.10;;;25.10;1.00;;;;;;5072394;28;20444;-71
2021/08/19 10:52:29;;;;;;;59.17;2.63;;;24.80;1.00;;;;;;5072493;28;21009;-71
2021/08/19 10:55:19;;;;;;;57.47;2.10;;;24.40;1.00;;;;;;5072639;28;20443;-71
2021/08/19 10:57:53;;;;;;;57.97;2.37;;;24.20;1.00;;;;;;5064388;28;20846;-71
2021/08/19 11:00:37;;;;;;;57.97;2.10;;;23.90;1.00;;;;;;5072139;28;20473;-71
2021/08/19 11:03:06;;;;;;;58.17;2.87;;;23.70;1.00;;;;;;5072205;28;20538;-71
2021/08/19 11:05:58;;;;;;;58.20;2.50;;;23.50;1.00;;;;;;5072593;28;20541;-70
2021/08/19 11:08:43;;;;;;;57.87;2.20;;;23.40;1.00;;;;;;5072655;28;20475;-70
2021/08/19 11:11:13;;;;;;;57.30;2.00;;;23.20;1.00;;;;;;5072059;28;20471;-70
2021/08/19 11:13:41;;;;;;;57.97;2.20;;;23.10;1.00;;;;;;5072097;28;20439;-70
2021/08/19 11:16:10;;;;;;;57.63;2.20;;;23.00;1.00;;;;;;5072167;28;20526;-70
2021/08/19 11:18:40;;;;;;;57.43;2.00;;;22.80;1.00;;;;;;5072146;28;20957;-70
2021/08/19 11:21:08;;;;;;;57.30;2.20;;;22.80;1.00;;;;;;5072006;28;20940;-71
2021/08/19 11:23:38;;;;;;;57.60;2.20;;;22.80;1.00;;;;;;5072333;28;20533;-70
2021/08/19 11:26:06;;;;;;;57.70;2.40;;;22.80;1.00;;;;;;5072062;28;20885;-70
2021/08/19 11:28:39;;;;;;;57.77;2.20;;;23.00;1.00;;;;;;5072063;28;20486;-70
2021/08/19 11:31:19;;;;;;;57.63;2.13;;;23.10;1.00;;;;;;5071550;28;20854;-70
2021/08/19 11:33:49;;;;;;;57.57;2.20;;;23.30;1.00;;;;;;5072056;28;20875;-70
2021/08/19 11:36:17;;;;;;;57.80;2.30;;;23.30;1.00;;;;;;5071977;28;20837;-70
2021/08/19 11:38:44;;;;;;;57.63;2.30;;;23.40;1.00;;;;;;5071975;28;20450;-70
2021/08/19 11:41:21;;;;;;;57.63;2.47;;;23.30;1.00;;;;;;5071649;28;20490;-70
2021/08/19 11:43:49;;;;;;;57.97;2.30;;;23.20;1.00;;;;;;5071785;28;20454;-70
2021/08/19 11:46:19;;;;;;;57.53;2.20;;;23.20;1.00;;;;;;5071984;28;20441;-70
2021/08/19 11:48:55;;;;;;;57.67;2.20;;;23.20;1.00;;;;;;5071900;28;20474;-70
2021/08/19 11:51:24;;;;;;;57.10;2.10;;;23.10;1.00;;;;;;5071455;28;20546;-70
2021/08/19 11:53:53;;;;;;;57.80;2.40;;;23.00;1.00;;;;;;5071712;28;20533;-70
2021/08/19 11:56:21;;;;;;;57.67;2.13;;;23.00;1.00;;;;;;5071808;28;20443;-70
2021/08/19 11:58:49;;;;;;;57.73;2.20;;;23.10;1.00;;;;;;5071849;28;20443;-70
2021/08/19 12:01:16;;;;;;;57.67;2.10;;;23.10;1.00;;;;;;5071494;28;20524;-70
2021/08/19 12:03:45;;;;;;;57.70;2.30;;;23.20;1.00;;;;;;5071599;28;20834;-70
2021/08/19 12:06:17;;;;;;;57.80;2.10;;;23.30;1.00;;;;;;5071611;28;20435;-70
2021/08/19 12:08:48;;;;;;;57.53;2.30;;;23.40;1.00;;;;;;5071580;28;20881;-70
2021/08/19 12:11:18;;;;;;;57.77;2.20;;;23.40;1.00;;;;;;5071475;28;20471;-70
2021/08/19 12:13:45;;;;;;;57.50;2.30;;;23.50;1.00;;;;;;5071589;28;20483;-70
2021/08/19 12:16:13;;;;;;;57.70;2.30;;;23.70;1.00;;;;;;5071539;28;20445;-70
2021/08/19 12:18:40;;;;;;;57.70;2.30;;;23.80;1.00;;;;;;5071701;28;20446;-70
2021/08/19 12:21:16;;;;;;;57.53;2.20;;;24.00;1.00;;;;;;5071390;28;21007;-70
2021/08/19 12:23:45;;;;;;;57.70;2.00;;;24.20;1.00;;;;;;5071438;28;20449;-70
2021/08/19 12:26:14;;;;;;;57.47;2.03;;;24.50;1.00;;;;;;5071472;28;20451;-71
2021/08/19 12:28:55;;;;;;;57.37;2.20;;;24.70;1.00;;;;;;5071473;28;20534;-71
2021/08/19 12:31:22;;;;;;;58.00;2.40;;;24.90;1.00;;;;;;5071118;28;20835;-71
2021/08/19 12:34:01;;;;;;;57.73;2.20;;;25.10;1.00;;;;;;5071582;28;20917;-71
2021/08/19 12:36:33;;;;;;;57.60;2.00;;;25.40;1.00;;;;;;5071290;28;20460;-71
2021/08/19 12:39:18;;;;;;;57.07;1.83;;;25.80;1.00;;;;;;5071391;28;20540;-71
2021/08/19 12:41:46;;;;;;;57.20;2.00;;;26.20;1.00;;;;;;5071250;28;20475;-71
2021/08/19 12:44:17;;;;;;;58.20;2.10;;;26.50;1.00;;;;;;5071211;28;20505;-71
2021/08/19 12:46:45;;;;;;;57.47;2.10;;;26.70;1.00;;;;;;5074526;28;20456;-71
2021/08/19 12:49:27;;;;;;;57.67;2.47;;;26.90;1.00;;;;;;5074685;28;21012;-71
2021/08/19 12:52:14;;;;;;;57.20;1.97;;;27.10;1.00;;;;;;5074867;28;20885;-71
2021/08/19 12:54:41;;;;;;;57.73;1.93;;;27.10;1.00;;;;;;5074892;28;20537;-70